Time;durP1;ratioP1;P1;durP2;ratioP2;P2;SDS_P1;SDS_P2;PMS_P1;PMS_P2;Temp;Humidity;BMP_temperature;BMP_pressure;BME280_temperature;BME280_humidity;BME280_pressure;Samples;Min_cycle;Max_cycle;Signal;HPM_P1;HPM_P2
2021/08/05 00:00:42;;;;;;;4.90;4.40;;;17.50;1.00;;;;;;5050044;28;20412;-70
2021/08/05 00:03:09;;;;;;;6.03;5.17;;;17.50;1.00;;;;;;5046984;28;21271;-72
2021/08/05 00:05:36;;;;;;;4.27;3.87;;;17.50;1.00;;;;;;5048612;28;20975;-73
2021/08/05 00:08:03;;;;;;;5.43;4.10;;;17.40;1.00;;;;;;5047383;28;20466;-70
2021/08/05 00:10:29;;;;;;;4.57;3.83;;;17.40;1.00;;;;;;5048410;28;20472;-77
2021/08/05 00:12:57;;;;;;;5.27;4.43;;;17.40;1.00;;;;;;5037176;28;20455;-71
2021/08/05 00:15:25;;;;;;;9.83;8.90;;;17.40;1.00;;;;;;5046589;28;20466;-71
2021/08/05 00:17:52;;;;;;;5.40;4.90;;;17.40;1.00;;;;;;5032219;28;20470;-70
2021/08/05 00:20:19;;;;;;;5.30;3.93;;;17.40;1.00;;;;;;5047672;28;20542;-69
2021/08/05 00:22:46;;;;;;;5.60;4.10;;;17.30;1.00;;;;;;5048691;28;20543;-72
2021/08/05 00:25:13;;;;;;;5.00;4.50;;;17.30;1.00;;;;;;5046967;28;20453;-69
2021/08/05 00:27:39;;;;;;;7.00;4.50;;;17.30;1.00;;;;;;5050051;28;20558;-69
2021/08/05 00:30:06;;;;;;;6.47;4.23;;;17.30;1.00;;;;;;5060487;28;20531;-70
2021/08/05 00:32:35;;;;;;;4.67;4.27;;;17.20;1.00;;;;;;5065104;28;20478;-70
2021/08/05 00:35:01;;;;;;;5.23;4.00;;;17.20;1.00;;;;;;5059493;28;20432;-71
2021/08/05 00:37:28;;;;;;;4.47;4.00;;;17.20;1.00;;;;;;5065765;28;20462;-69
2021/08/05 00:39:56;;;;;;;7.80;4.77;;;17.20;1.00;;;;;;5062633;28;20466;-71
2021/08/05 00:42:22;;;;;;;4.90;4.50;;;17.20;1.00;;;;;;5048894;28;20455;-70
2021/08/05 00:44:49;;;;;;;4.50;4.10;;;17.10;1.00;;;;;;5054280;28;20423;-70
2021/08/05 00:47:16;;;;;;;5.23;4.13;;;17.10;1.00;;;;;;5065033;28;21256;-70
2021/08/05 00:49:44;;;;;;;4.20;3.60;;;17.10;1.00;;;;;;5059291;28;21161;-71
2021/08/05 00:52:11;;;;;;;4.27;3.87;;;17.10;1.00;;;;;;5053061;28;21052;-70
2021/08/05 00:54:37;;;;;;;4.60;4.00;;;17.00;1.00;;;;;;5055526;28;20523;-71
2021/08/05 00:57:05;;;;;;;4.47;4.07;;;17.00;1.00;;;;;;5053004;28;20466;-71
2021/08/05 00:59:31;;;;;;;3.93;3.53;;;17.00;1.00;;;;;;5050479;28;20486;-69
2021/08/05 01:02:05;;;;;;;7.20;5.03;;;17.00;1.00;;;;;;5042592;28;20510;-69
2021/08/05 01:04:33;;;;;;;4.70;3.83;;;17.00;1.00;;;;;;5046660;28;20467;-70
2021/08/05 01:07:06;;;;;;;5.00;3.80;;;17.00;1.00;;;;;;5047972;28;20482;-70
2021/08/05 01:09:39;;;;;;;3.50;2.80;;;17.00;1.00;;;;;;5043037;28;20444;-71
2021/08/05 01:12:14;;;;;;;4.30;3.20;;;17.10;1.00;;;;;;5046782;28;21309;-70
2021/08/05 01:14:45;;;;;;;5.90;3.90;;;17.10;1.00;;;;;;5044428;28;20455;-69
2021/08/05 01:17:16;;;;;;;4.30;3.33;;;17.10;1.00;;;;;;5046799;28;20466;-70
2021/08/05 01:19:47;;;;;;;4.97;3.27;;;17.10;1.00;;;;;;5045148;28;20452;-71
2021/08/05 01:22:22;;;;;;;3.57;3.27;;;17.10;1.00;;;;;;5046584;28;20478;-70
2021/08/05 01:24:56;;;;;;;4.10;3.70;;;17.10;1.00;;;;;;5048494;28;20492;-69
2021/08/05 01:27:26;;;;;;;6.87;3.67;;;17.10;1.00;;;;;;5048565;28;20458;-70
2021/08/05 01:29:54;;;;;;;5.50;3.50;;;17.10;1.00;;;;;;5046472;28;20478;-70
2021/08/05 01:32:22;;;;;;;3.43;3.13;;;17.00;1.00;;;;;;5048347;28;20463;-70
2021/08/05 01:34:49;;;;;;;3.70;2.93;;;17.10;1.00;;;;;;5046779;28;21317;-71
2021/08/05 01:37:18;;;;;;;3.43;3.13;;;17.00;1.00;;;;;;5045551;28;20449;-69
2021/08/05 01:39:45;;;;;;;3.60;3.30;;;17.10;1.00;;;;;;5041392;28;20449;-70
2021/08/05 01:42:13;;;;;;;4.00;3.17;;;17.00;1.00;;;;;;5044086;28;20450;-70
2021/08/05 01:44:45;;;;;;;3.60;3.00;;;17.10;1.00;;;;;;5044903;28;20446;-70
2021/08/05 01:47:14;;;;;;;4.33;3.03;;;17.10;1.00;;;;;;5048558;28;20451;-70
2021/08/05 01:49:42;;;;;;;3.20;2.90;;;17.10;1.00;;;;;;5046114;28;20456;-70
2021/08/05 01:52:09;;;;;;;4.70;3.20;;;17.10;1.00;;;;;;5029717;28;21009;-70
2021/08/05 01:54:36;;;;;;;4.60;3.33;;;17.10;1.00;;;;;;5046837;28;20877;-70
2021/08/05 01:57:04;;;;;;;4.83;3.77;;;17.00;1.00;;;;;;5045739;28;21369;-69
2021/08/05 01:59:30;;;;;;;4.37;3.63;;;17.00;1.00;;;;;;5044866;28;20975;-70
2021/08/05 02:02:00;;;;;;;4.13;3.70;;;17.00;1.00;;;;;;5044344;28;20457;-68
2021/08/05 02:04:36;;;;;;;3.53;3.20;;;16.90;1.00;;;;;;5046855;28;20521;-71
2021/08/05 02:07:09;;;;;;;4.07;3.10;;;16.90;1.00;;;;;;5046433;28;20450;-70
2021/08/05 02:09:42;;;;;;;4.17;3.30;;;16.90;1.00;;;;;;5046667;28;20451;-70
2021/08/05 02:12:09;;;;;;;3.73;3.43;;;16.90;1.00;;;;;;5045774;28;20918;-68
2021/08/05 02:14:37;;;;;;;3.20;2.87;;;16.80;1.00;;;;;;5048938;28;20442;-70
2021/08/05 02:17:07;;;;;;;4.80;4.30;;;16.80;1.00;;;;;;5047298;28;20434;-69
2021/08/05 02:19:35;;;;;;;4.53;3.67;;;16.80;1.00;;;;;;5028217;28;20471;-70
2021/08/05 02:22:03;;;;;;;4.63;3.47;;;16.80;1.00;;;;;;5043874;28;20460;-69
2021/08/05 02:24:31;;;;;;;4.17;3.40;;;16.70;1.00;;;;;;5047723;28;20439;-71
2021/08/05 02:26:58;;;;;;;4.20;3.63;;;16.70;1.00;;;;;;5046060;28;21278;-70
2021/08/05 02:29:26;;;;;;;3.47;3.17;;;16.70;1.00;;;;;;5045310;28;20473;-70
2021/08/05 02:31:54;;;;;;;4.20;3.63;;;16.70;1.00;;;;;;5043884;28;20462;-70
2021/08/05 02:34:24;;;;;;;3.50;3.20;;;16.70;1.00;;;;;;5047588;28;20545;-70
2021/08/05 02:36:52;;;;;;;3.60;3.30;;;16.60;1.00;;;;;;5046106;28;21007;-70
2021/08/05 02:39:20;;;;;;;4.17;3.47;;;16.60;1.00;;;;;;5051386;28;20473;-70
2021/08/05 02:41:48;;;;;;;4.93;3.90;;;16.60;1.00;;;;;;5044124;28;20465;-69
2021/08/05 02:44:15;;;;;;;4.47;3.70;;;16.60;1.00;;;;;;5050732;28;20434;-70
2021/08/05 02:46:43;;;;;;;3.70;3.30;;;16.60;1.00;;;;;;5048651;28;20470;-70
2021/08/05 02:49:10;;;;;;;4.33;3.50;;;16.60;1.00;;;;;;5050056;28;20473;-70
2021/08/05 02:51:38;;;;;;;4.13;3.70;;;16.50;1.00;;;;;;5052306;28;21229;-70
2021/08/05 02:54:05;;;;;;;4.10;3.70;;;16.50;1.00;;;;;;5049069;28;21098;-70
2021/08/05 02:56:33;;;;;;;4.50;3.70;;;16.50;1.00;;;;;;5052419;28;20454;-69
2021/08/05 02:59:00;;;;;;;4.00;3.60;;;16.50;1.00;;;;;;5047947;28;20462;-69
2021/08/05 03:01:27;;;;;;;4.23;3.83;;;16.50;1.00;;;;;;5051001;28;21027;-71
2021/08/05 03:03:54;;;;;;;3.60;3.30;;;16.50;1.00;;;;;;5047312;28;21772;-70
2021/08/05 03:06:25;;;;;;;4.60;4.03;;;16.50;1.00;;;;;;5044309;28;20934;-70
2021/08/05 03:08:53;;;;;;;4.80;4.13;;;16.40;1.00;;;;;;5048185;28;20446;-70
2021/08/05 03:11:19;;;;;;;3.90;3.50;;;16.40;1.00;;;;;;5047878;28;21006;-69
2021/08/05 03:13:46;;;;;;;5.47;3.10;;;16.40;1.00;;;;;;5049351;28;20909;-71
2021/08/05 03:16:15;;;;;;;3.53;3.23;;;16.40;1.00;;;;;;5048918;28;21587;-70
2021/08/05 03:18:42;;;;;;;5.70;3.73;;;16.40;1.00;;;;;;5046387;28;20454;-69
2021/08/05 03:21:08;;;;;;;5.30;4.27;;;16.40;1.00;;;;;;5049625;28;20457;-70
2021/08/05 03:23:35;;;;;;;4.50;3.63;;;16.40;1.00;;;;;;5052366;28;20449;-72
2021/08/05 03:26:03;;;;;;;4.30;3.90;;;16.40;1.00;;;;;;5048160;28;20469;-70
2021/08/05 03:28:30;;;;;;;5.30;4.50;;;16.40;1.00;;;;;;5050550;28;20452;-71
2021/08/05 03:30:58;;;;;;;5.53;5.10;;;16.40;1.00;;;;;;5049349;28;20471;-70
2021/08/05 03:33:24;;;;;;;4.07;3.67;;;16.40;1.00;;;;;;5053174;28;20451;-69
2021/08/05 03:35:51;;;;;;;5.77;5.20;;;16.40;1.00;;;;;;5055309;28;20465;-69
2021/08/05 03:38:18;;;;;;;4.40;4.00;;;16.40;1.00;;;;;;5058785;28;20465;-70
2021/08/05 03:40:45;;;;;;;5.43;4.13;;;16.40;1.00;;;;;;5053055;28;20461;-71
2021/08/05 03:43:13;;;;;;;5.23;4.63;;;16.40;1.00;;;;;;5054086;28;20496;-70
2021/08/05 03:45:39;;;;;;;3.73;3.43;;;16.40;1.00;;;;;;5054670;28;20534;-71
2021/08/05 03:48:06;;;;;;;5.60;4.60;;;16.40;1.00;;;;;;5057157;28;20890;-70
2021/08/05 03:50:33;;;;;;;6.17;5.10;;;16.40;1.00;;;;;;5053298;28;20472;-71
2021/08/05 03:52:59;;;;;;;4.80;4.30;;;16.30;1.00;;;;;;5050204;28;20513;-70
2021/08/05 03:55:26;;;;;;;4.97;4.13;;;16.40;1.00;;;;;;5053123;28;20449;-69
2021/08/05 03:57:53;;;;;;;5.17;4.00;;;16.40;1.00;;;;;;5050827;28;20466;-70
2021/08/05 04:00:21;;;;;;;4.63;4.17;;;16.40;1.00;;;;;;5049588;28;20477;-70
2021/08/05 04:02:48;;;;;;;4.90;4.10;;;16.30;1.00;;;;;;5053571;28;20509;-69
2021/08/05 04:05:15;;;;;;;6.47;4.20;;;16.30;1.00;;;;;;5056904;28;20457;-72
2021/08/05 04:07:41;;;;;;;5.97;4.77;;;16.40;1.00;;;;;;5057576;28;20448;-70
2021/08/05 04:10:09;;;;;;;6.67;5.67;;;16.40;1.00;;;;;;5063023;28;20461;-69
2021/08/05 04:12:36;;;;;;;5.13;3.50;;;16.50;1.00;;;;;;5060068;28;20444;-69
2021/08/05 04:15:03;;;;;;;5.37;4.87;;;16.40;1.00;;;;;;5063073;28;21010;-70
2021/08/05 04:17:31;;;;;;;6.03;4.77;;;16.50;1.00;;;;;;5065074;28;20464;-70
2021/08/05 04:19:58;;;;;;;4.83;4.33;;;16.50;1.00;;;;;;5062179;28;20495;-70
2021/08/05 04:22:25;;;;;;;9.20;4.70;;;16.50;1.00;;;;;;5061829;28;20468;-70
2021/08/05 04:24:51;;;;;;;6.03;4.50;;;16.50;1.00;;;;;;5064222;28;20465;-70
2021/08/05 04:27:18;;;;;;;6.50;5.20;;;16.50;1.00;;;;;;5061931;28;20439;-69
2021/08/05 04:29:45;;;;;;;7.50;4.57;;;16.50;1.00;;;;;;5066561;28;20476;-70
2021/08/05 04:32:12;;;;;;;8.93;4.60;;;16.50;1.00;;;;;;5061861;28;20466;-69
2021/08/05 04:34:40;;;;;;;6.77;5.00;;;16.50;1.00;;;;;;5064188;28;20544;-69
2021/08/05 04:37:06;;;;;;;7.37;5.20;;;16.60;1.00;;;;;;5061475;28;21076;-69
2021/08/05 04:39:33;;;;;;;5.07;4.57;;;16.60;1.00;;;;;;5060809;28;20478;-70
2021/08/05 04:42:00;;;;;;;5.43;4.60;;;16.60;1.00;;;;;;5061501;28;20446;-68
2021/08/05 04:44:27;;;;;;;6.73;4.30;;;16.60;1.00;;;;;;5043708;28;20477;-69
2021/08/05 04:46:53;;;;;;;5.67;4.73;;;16.70;1.00;;;;;;5060200;28;20493;-69
2021/08/05 04:49:20;;;;;;;5.00;4.60;;;16.70;1.00;;;;;;5059604;28;20455;-68
2021/08/05 04:51:49;;;;;;;6.40;4.77;;;16.70;1.00;;;;;;5054605;28;20447;-69
2021/08/05 04:54:15;;;;;;;5.17;4.67;;;16.70;1.00;;;;;;5053549;28;20572;-69
2021/08/05 04:56:42;;;;;;;5.80;5.20;;;16.70;1.00;;;;;;5053255;28;20451;-69
2021/08/05 04:59:09;;;;;;;6.40;4.57;;;16.70;1.00;;;;;;5051849;28;20462;-69
2021/08/05 05:01:35;;;;;;;5.70;5.20;;;16.70;1.00;;;;;;5049924;28;20433;-70
2021/08/05 05:04:02;;;;;;;6.10;5.10;;;16.80;1.00;;;;;;5052572;28;21255;-70
2021/08/05 05:06:29;;;;;;;5.77;4.20;;;16.80;1.00;;;;;;5051188;28;20451;-69
2021/08/05 05:08:58;;;;;;;8.73;5.00;;;16.80;1.00;;;;;;5055100;28;20462;-68
2021/08/05 05:11:24;;;;;;;6.80;5.50;;;16.80;1.00;;;;;;5032358;28;20595;-70
2021/08/05 05:13:51;;;;;;;6.90;5.07;;;16.90;1.00;;;;;;5049502;28;20481;-69
2021/08/05 05:16:18;;;;;;;6.80;5.50;;;16.90;1.00;;;;;;5051232;28;21150;-71
2021/08/05 05:18:44;;;;;;;7.10;5.13;;;17.00;1.00;;;;;;5063884;28;20502;-71
2021/08/05 05:21:12;;;;;;;6.53;4.70;;;17.10;1.00;;;;;;5063373;28;21496;-72
2021/08/05 05:23:39;;;;;;;5.00;4.47;;;17.10;1.00;;;;;;5060690;28;20439;-69
2021/08/05 05:26:07;;;;;;;6.43;5.80;;;17.20;1.00;;;;;;5054029;28;20490;-69
2021/08/05 05:28:34;;;;;;;8.20;5.10;;;17.30;1.00;;;;;;5062731;28;20471;-71
2021/08/05 05:31:01;;;;;;;10.40;5.70;;;17.40;1.00;;;;;;5063030;28;20467;-69
2021/08/05 05:33:28;;;;;;;8.00;6.90;;;17.50;1.00;;;;;;5059015;28;20530;-71
2021/08/05 05:35:55;;;;;;;7.43;5.80;;;17.60;1.00;;;;;;5059209;28;20462;-73
2021/08/05 05:38:22;;;;;;;5.80;5.30;;;17.60;1.00;;;;;;5059845;28;20820;-72
2021/08/05 05:40:49;;;;;;;6.13;5.40;;;17.60;1.00;;;;;;5055172;28;20586;-72
2021/08/05 05:43:18;;;;;;;8.63;5.80;;;17.70;1.00;;;;;;5050277;28;20439;-73
2021/08/05 05:45:45;;;;;;;8.30;5.70;;;17.80;1.00;;;;;;5051215;28;20617;-73
2021/08/05 05:48:12;;;;;;;6.50;5.90;;;17.90;1.00;;;;;;5060705;28;20465;-71
2021/08/05 05:50:40;;;;;;;6.40;5.80;;;18.00;1.00;;;;;;5045025;28;20969;-73
2021/08/05 05:53:07;;;;;;;6.87;5.63;;;18.10;1.00;;;;;;5049755;28;20471;-73
2021/08/05 05:55:33;;;;;;;7.03;5.30;;;18.20;1.00;;;;;;5052618;28;20461;-71
2021/08/05 05:58:00;;;;;;;6.67;5.10;;;18.20;1.00;;;;;;5051128;28;20532;-71
2021/08/05 06:00:29;;;;;;;7.93;5.53;;;18.20;1.00;;;;;;5037579;28;20494;-73
2021/08/05 06:02:55;;;;;;;8.37;6.20;;;18.30;1.00;;;;;;5055042;28;20455;-73
2021/08/05 06:05:22;;;;;;;6.43;5.47;;;18.40;1.00;;;;;;5050711;28;21005;-73
2021/08/05 06:07:50;;;;;;;7.77;6.97;;;18.40;1.00;;;;;;5051504;28;20463;-72
2021/08/05 06:10:19;;;;;;;7.50;5.60;;;18.50;1.00;;;;;;5047219;28;20458;-73
2021/08/05 06:12:46;;;;;;;8.10;7.13;;;18.60;1.00;;;;;;5053086;28;21278;-73
2021/08/05 06:15:14;;;;;;;7.33;6.33;;;18.70;1.00;;;;;;5052527;28;20462;-75
2021/08/05 06:17:42;;;;;;;7.63;6.63;;;18.70;1.00;;;;;;5053272;28;20460;-74
2021/08/05 06:20:13;;;;;;;7.93;7.10;;;18.80;1.00;;;;;;5052837;28;20620;-73
2021/08/05 06:22:41;;;;;;;7.30;6.30;;;18.90;1.00;;;;;;5049682;28;20554;-75
2021/08/05 06:25:10;;;;;;;7.60;7.00;;;18.90;1.00;;;;;;5052326;28;20602;-74
2021/08/05 06:27:37;;;;;;;7.90;6.70;;;18.90;1.00;;;;;;5051609;28;20649;-74
2021/08/05 06:30:04;;;;;;;9.90;7.40;;;19.00;1.00;;;;;;5056924;28;20443;-75
2021/08/05 06:32:31;;;;;;;7.60;6.80;;;19.10;1.00;;;;;;5056006;28;21105;-74
2021/08/05 06:34:59;;;;;;;9.87;8.47;;;19.20;1.00;;;;;;5053610;28;20436;-74
2021/08/05 06:37:25;;;;;;;8.37;7.20;;;19.30;1.00;;;;;;5054952;28;20551;-74
2021/08/05 06:39:53;;;;;;;8.47;7.60;;;19.40;1.00;;;;;;5053930;28;20468;-74
2021/08/05 06:42:20;;;;;;;8.03;7.23;;;19.50;1.00;;;;;;5051772;28;20432;-75
2021/08/05 06:44:46;;;;;;;9.87;7.47;;;19.60;1.00;;;;;;5053912;28;20526;-74
2021/08/05 06:47:16;;;;;;;6.43;5.90;;;19.70;1.00;;;;;;5052514;28;20448;-78
2021/08/05 06:49:43;;;;;;;9.07;6.70;;;19.90;1.00;;;;;;5058051;28;20428;-73
2021/08/05 06:52:11;;;;;;;8.37;7.07;;;20.00;1.00;;;;;;5052582;28;20456;-73
2021/08/05 06:54:38;;;;;;;8.43;7.30;;;20.20;1.00;;;;;;5051616;28;20547;-73
2021/08/05 06:57:05;;;;;;;12.43;10.00;;;20.20;1.00;;;;;;5052091;28;21003;-74
2021/08/05 06:59:31;;;;;;;9.40;7.20;;;20.30;1.00;;;;;;5050537;28;20433;-74
2021/08/05 07:01:59;;;;;;;9.27;6.93;;;20.40;1.00;;;;;;5051400;28;20708;-75
2021/08/05 07:04:26;;;;;;;9.43;7.60;;;20.50;1.00;;;;;;5051199;28;20606;-74
2021/08/05 07:06:52;;;;;;;7.73;6.70;;;20.50;1.00;;;;;;5052498;28;20555;-74
2021/08/05 07:09:20;;;;;;;8.00;7.30;;;20.60;1.00;;;;;;5054885;28;20550;-75
2021/08/05 07:11:47;;;;;;;6.80;6.30;;;20.60;1.00;;;;;;5055924;28;20478;-72
2021/08/05 07:14:14;;;;;;;8.30;7.40;;;20.70;1.00;;;;;;5054176;28;20452;-74
2021/08/05 07:16:40;;;;;;;7.53;6.33;;;20.70;1.00;;;;;;5054248;28;20991;-75
2021/08/05 07:19:07;;;;;;;8.07;7.43;;;20.80;1.00;;;;;;5041588;28;20510;-75
2021/08/05 07:21:34;;;;;;;8.90;5.90;;;20.70;1.00;;;;;;5042313;28;21192;-75
2021/08/05 07:24:01;;;;;;;9.77;7.83;;;20.80;1.00;;;;;;5051388;28;21678;-74
2021/08/05 07:26:31;;;;;;;8.40;7.40;;;21.00;1.00;;;;;;5061777;28;20428;-76
2021/08/05 07:28:58;;;;;;;9.03;7.07;;;21.10;1.00;;;;;;5067951;28;20493;-76
2021/08/05 07:31:25;;;;;;;7.40;6.70;;;21.20;1.00;;;;;;5070236;28;20470;-76
2021/08/05 07:33:54;;;;;;;6.80;6.20;;;21.20;1.00;;;;;;5069250;28;20475;-77
2021/08/05 07:36:21;;;;;;;8.17;6.90;;;21.20;1.00;;;;;;5054366;28;20433;-77
2021/08/05 07:38:48;;;;;;;6.97;6.37;;;21.30;1.00;;;;;;5074044;28;20453;-76
2021/08/05 07:41:15;;;;;;;6.93;6.33;;;21.20;1.00;;;;;;5081090;28;20449;-76
2021/08/05 07:43:43;;;;;;;7.13;6.53;;;21.30;1.00;;;;;;5088621;28;20405;-75
2021/08/05 07:46:10;;;;;;;9.60;6.87;;;21.50;1.00;;;;;;5090451;28;20411;-75
2021/08/05 07:48:37;;;;;;;8.23;7.47;;;21.70;1.00;;;;;;5092846;28;20405;-75
2021/08/05 07:51:04;;;;;;;6.90;6.13;;;21.90;1.00;;;;;;5095519;28;20457;-75
2021/08/05 07:53:30;;;;;;;9.13;6.47;;;22.00;1.00;;;;;;5094450;28;20407;-76
2021/08/05 07:55:57;;;;;;;10.93;6.23;;;22.10;1.00;;;;;;5091433;27;20424;-74
2021/08/05 07:58:24;;;;;;;9.23;6.80;;;22.30;1.00;;;;;;5091938;28;20424;-76
2021/08/05 08:00:52;;;;;;;8.03;6.40;;;22.40;1.00;;;;;;5094502;28;20416;-76
2021/08/05 08:03:19;;;;;;;7.60;6.90;;;22.40;1.00;;;;;;5091280;28;20476;-78
2021/08/05 08:05:46;;;;;;;10.47;7.10;;;22.40;1.00;;;;;;5078467;28;20542;-76
2021/08/05 08:08:14;;;;;;;6.10;5.60;;;22.40;1.00;;;;;;5091203;28;20474;-78
2021/08/05 08:10:41;;;;;;;6.50;5.87;;;22.50;1.00;;;;;;5089891;27;20953;-77
2021/08/05 08:13:07;;;;;;;7.03;6.23;;;22.50;1.00;;;;;;5088849;28;20428;-76
2021/08/05 08:15:34;;;;;;;7.10;5.40;;;22.50;1.00;;;;;;5086597;28;20498;-76
2021/08/05 08:18:02;;;;;;;6.50;5.90;;;22.60;1.00;;;;;;5085129;28;20493;-76
2021/08/05 08:20:31;;;;;;;6.63;5.93;;;22.70;1.00;;;;;;5083935;28;20473;-75
2021/08/05 08:22:57;;;;;;;7.00;6.30;;;22.80;1.00;;;;;;5058449;28;20412;-77
2021/08/05 08:25:24;;;;;;;6.73;6.13;;;22.80;1.00;;;;;;5045292;28;20449;-77
2021/08/05 08:27:51;;;;;;;6.67;5.93;;;22.80;1.00;;;;;;5061095;28;20462;-76
2021/08/05 08:30:18;;;;;;;7.53;6.80;;;22.90;1.00;;;;;;5060325;28;20427;-79
2021/08/05 08:32:47;;;;;;;7.53;6.83;;;22.90;1.00;;;;;;5056560;28;20462;-79
2021/08/05 08:35:15;;;;;;;6.90;6.30;;;22.90;1.00;;;;;;5058063;28;20892;-75
2021/08/05 08:37:42;;;;;;;7.17;6.47;;;23.20;1.00;;;;;;5039614;28;20466;-78
2021/08/05 08:40:10;;;;;;;8.80;7.17;;;23.20;1.00;;;;;;5058441;28;20438;-77
2021/08/05 08:42:38;;;;;;;6.33;5.73;;;23.40;1.00;;;;;;5054068;28;20456;-79
2021/08/05 08:45:06;;;;;;;7.40;6.60;;;23.50;1.00;;;;;;5055102;28;20433;-78
2021/08/05 08:47:35;;;;;;;6.83;6.23;;;23.70;1.00;;;;;;5060852;28;20520;-80
2021/08/05 08:50:03;;;;;;;7.33;6.63;;;23.90;1.00;;;;;;5065615;28;20480;-77
2021/08/05 08:52:33;;;;;;;6.53;6.03;;;24.10;1.00;;;;;;5067360;28;20452;-75
2021/08/05 08:55:03;;;;;;;9.20;6.73;;;24.30;1.00;;;;;;5058511;28;20459;-77
2021/08/05 08:57:31;;;;;;;8.00;6.33;;;24.40;1.00;;;;;;5055824;28;20474;-77
2021/08/05 08:59:59;;;;;;;8.23;6.47;;;24.50;1.00;;;;;;5047001;28;21688;-77
2021/08/05 09:02:26;;;;;;;7.13;6.43;;;24.40;1.00;;;;;;5073886;28;20465;-77
2021/08/05 09:04:54;;;;;;;6.67;5.73;;;24.50;1.00;;;;;;5064694;28;20462;-76
2021/08/05 09:07:23;;;;;;;6.57;6.03;;;24.70;1.00;;;;;;5072919;28;20427;-75
2021/08/05 09:09:52;;;;;;;6.53;5.70;;;24.70;1.00;;;;;;5066633;28;20451;-76
2021/08/05 09:12:19;;;;;;;5.60;5.00;;;24.80;1.00;;;;;;5058841;28;20460;-78
2021/08/05 09:14:47;;;;;;;5.23;4.73;;;24.90;1.00;;;;;;5052525;28;21374;-77
2021/08/05 09:17:21;;;;;;;4.70;4.27;;;25.00;1.00;;;;;;5057818;28;20485;-77
2021/08/05 09:19:50;;;;;;;5.93;5.43;;;25.00;1.00;;;;;;5060704;28;20450;-77
2021/08/05 09:22:33;;;;;;;5.23;4.70;;;25.00;1.00;;;;;;5056897;28;20451;-76
2021/08/05 09:25:27;;;;;;;5.70;5.10;;;25.10;1.00;;;;;;5053162;28;20431;-77
2021/08/05 09:27:56;;;;;;;6.30;5.20;;;25.20;1.00;;;;;;5053057;28;20449;-76
2021/08/05 09:30:37;;;;;;;4.33;3.93;;;25.40;1.00;;;;;;5050576;28;20476;-76
2021/08/05 09:33:06;;;;;;;5.10;4.23;;;25.60;1.00;;;;;;5051803;28;20477;-77
2021/08/05 09:35:33;;;;;;;4.70;4.30;;;25.80;1.00;;;;;;5056742;28;20454;-76
2021/08/05 09:38:21;;;;;;;6.93;5.23;;;26.10;1.00;;;;;;5049058;28;20453;-74
2021/08/05 09:40:52;;;;;;;5.43;3.67;;;26.60;1.00;;;;;;5032591;28;20482;-76
2021/08/05 09:43:26;;;;;;;4.40;4.00;;;27.30;1.00;;;;;;5055017;28;20626;-76
2021/08/05 09:45:53;;;;;;;5.80;4.80;;;27.50;1.00;;;;;;5051275;28;20468;-76
2021/08/05 09:48:38;;;;;;;3.80;3.47;;;28.00;1.00;;;;;;5045791;28;20523;-76
2021/08/05 09:51:14;;;;;;;4.10;3.63;;;28.40;1.00;;;;;;5048623;28;20503;-76
2021/08/05 09:53:55;;;;;;;4.50;4.10;;;28.90;1.00;;;;;;5048932;28;20716;-75
2021/08/05 09:56:23;;;;;;;4.47;4.07;;;29.40;1.00;;;;;;5046691;28;20469;-75
2021/08/05 09:58:50;;;;;;;3.80;3.50;;;29.60;1.00;;;;;;5045239;28;20443;-75
2021/08/05 10:01:17;;;;;;;4.73;4.33;;;29.80;1.00;;;;;;5049938;28;20462;-75
2021/08/05 10:03:45;;;;;;;3.93;3.63;;;30.30;1.00;;;;;;5050000;28;20541;-75
2021/08/05 10:06:12;;;;;;;5.40;3.93;;;30.60;1.00;;;;;;5053252;28;20468;-73
2021/08/05 10:08:40;;;;;;;3.87;3.57;;;30.30;1.00;;;;;;5050387;28;21300;-74
2021/08/05 10:11:09;;;;;;;3.63;3.33;;;29.60;1.00;;;;;;5046569;28;21603;-75
2021/08/05 10:13:39;;;;;;;4.17;3.70;;;29.30;1.00;;;;;;5055340;28;20765;-75
2021/08/05 10:16:08;;;;;;;3.57;3.27;;;29.40;1.00;;;;;;5066225;28;20466;-80
2021/08/05 10:18:37;;;;;;;3.97;3.57;;;29.50;1.00;;;;;;5026220;28;20498;-69
2021/08/05 10:21:05;;;;;;;3.47;3.17;;;29.20;1.00;;;;;;5063372;28;20449;-70
2021/08/05 10:23:34;;;;;;;5.53;4.00;;;29.10;1.00;;;;;;5051867;28;20462;-69
2021/08/05 10:26:03;;;;;;;4.57;4.10;;;28.80;1.00;;;;;;5053524;28;20901;-69
2021/08/05 10:28:31;;;;;;;5.53;4.90;;;28.40;1.00;;;;;;5049299;28;20541;-70
2021/08/05 10:31:00;;;;;;;5.03;3.97;;;28.70;1.00;;;;;;5047523;28;21054;-70
2021/08/05 10:33:27;;;;;;;5.53;4.90;;;28.80;1.00;;;;;;5050401;28;20961;-70
2021/08/05 10:35:54;;;;;;;5.20;4.53;;;28.90;1.00;;;;;;5046911;28;20455;-69
2021/08/05 10:38:22;;;;;;;5.47;4.97;;;28.90;1.00;;;;;;5046783;28;20444;-69
2021/08/05 10:40:52;;;;;;;4.33;4.03;;;28.90;1.00;;;;;;5034386;28;20991;-70
2021/08/05 10:43:19;;;;;;;3.73;3.30;;;28.40;1.00;;;;;;5047063;28;20454;-69
2021/08/05 10:45:46;;;;;;;4.87;4.10;;;28.30;1.00;;;;;;5038796;28;20494;-69
2021/08/05 10:48:16;;;;;;;4.63;4.23;;;28.30;1.00;;;;;;5048319;28;20546;-69
2021/08/05 10:50:45;;;;;;;4.23;3.83;;;28.00;1.00;;;;;;5044170;28;20474;-70
2021/08/05 10:53:44;;;;;;;6.53;4.50;;;28.10;1.00;;;;;;5041542;28;20482;-71
2021/08/05 10:56:20;;;;;;;4.50;4.10;;;28.50;1.00;;;;;;5044835;28;20624;-69
2021/08/05 10:59:09;;;;;;;5.57;5.17;;;28.50;1.00;;;;;;5037981;28;21651;-70
2021/08/05 11:01:47;;;;;;;4.07;3.50;;;28.60;1.00;;;;;;5022252;28;20463;-70
2021/08/05 11:04:46;;;;;;;4.53;4.13;;;28.50;1.00;;;;;;5042282;28;20444;-70
2021/08/05 11:07:30;;;;;;;6.47;3.73;;;28.20;1.00;;;;;;5033773;28;20452;-78
2021/08/05 11:10:26;;;;;;;5.10;4.60;;;28.10;1.00;;;;;;5046201;28;20453;-76
2021/08/05 11:12:56;;;;;;;3.60;3.30;;;28.50;1.00;;;;;;5043566;28;20576;-78
2021/08/05 11:15:49;;;;;;;4.73;4.17;;;29.10;1.00;;;;;;5041904;28;20462;-75
2021/08/05 11:18:17;;;;;;;4.07;3.17;;;29.70;1.00;;;;;;5041683;28;20434;-76
2021/08/05 11:20:47;;;;;;;3.47;3.17;;;30.10;1.00;;;;;;5039504;28;21414;-76
2021/08/05 11:23:39;;;;;;;3.70;3.27;;;29.90;1.00;;;;;;5044165;28;20479;-76
2021/08/05 11:26:10;;;;;;;4.43;4.03;;;29.60;1.00;;;;;;5039966;28;21072;-76
2021/08/05 11:28:46;;;;;;;4.70;3.73;;;29.80;1.00;;;;;;5043195;28;20442;-74
2021/08/05 11:31:30;;;;;;;3.60;3.30;;;30.40;1.00;;;;;;5051869;28;20477;-75
2021/08/05 11:33:57;;;;;;;5.50;3.40;;;30.70;1.00;;;;;;5044540;28;20468;-77
2021/08/05 11:36:37;;;;;;;3.53;3.07;;;30.70;1.00;;;;;;5047865;28;20454;-75
2021/08/05 11:39:13;;;;;;;3.70;3.40;;;30.70;1.00;;;;;;5047075;28;20533;-76
2021/08/05 11:41:50;;;;;;;5.07;4.03;;;30.60;1.00;;;;;;5051603;28;20494;-75
2021/08/05 11:44:34;;;;;;;4.27;3.50;;;30.70;1.00;;;;;;5052161;28;20547;-75
2021/08/05 11:47:29;;;;;;;4.37;3.00;;;30.70;1.00;;;;;;5051149;28;20464;-74
2021/08/05 11:49:59;;;;;;;3.47;3.17;;;30.20;1.00;;;;;;5050818;28;20582;-76
2021/08/05 11:52:39;;;;;;;3.87;3.47;;;29.70;1.00;;;;;;5044136;28;20837;-74
2021/08/05 11:55:08;;;;;;;3.43;3.20;;;29.40;1.00;;;;;;5042922;28;20473;-75
2021/08/05 11:57:40;;;;;;;5.13;3.93;;;29.40;1.00;;;;;;5045912;28;20463;-74
2021/08/05 12:00:13;;;;;;;5.33;4.23;;;29.60;1.00;;;;;;5044372;28;20447;-76
2021/08/05 12:02:40;;;;;;;4.67;3.67;;;30.10;1.00;;;;;;5044694;28;20449;-74
2021/08/05 12:05:09;;;;;;;5.97;3.30;;;30.80;1.00;;;;;;5040874;28;20497;-76
2021/08/05 12:07:38;;;;;;;3.57;2.97;;;31.50;1.00;;;;;;5044265;28;20446;-76
2021/08/05 12:10:15;;;;;;;3.70;3.40;;;32.20;1.00;;;;;;5040443;28;20461;-76
2021/08/05 12:12:49;;;;;;;3.57;3.27;;;32.40;1.00;;;;;;5046566;28;20427;-75
2021/08/05 12:15:19;;;;;;;4.13;3.33;;;32.40;1.00;;;;;;5039318;28;20957;-76
2021/08/05 12:17:49;;;;;;;3.40;3.10;;;32.20;1.00;;;;;;5046876;28;21659;-75
2021/08/05 12:20:27;;;;;;;5.13;2.90;;;32.40;1.00;;;;;;5044902;28;20438;-74
2021/08/05 12:22:59;;;;;;;4.10;3.80;;;32.30;1.00;;;;;;5048988;28;20434;-74
2021/08/05 12:25:38;;;;;;;2.80;2.60;;;31.90;1.00;;;;;;5049834;28;22685;-73
2021/08/05 12:28:08;;;;;;;5.20;3.40;;;31.30;1.00;;;;;;5043144;28;20498;-76
2021/08/05 12:30:41;;;;;;;4.07;3.43;;;30.60;1.00;;;;;;5045645;28;20474;-76
2021/08/05 12:33:11;;;;;;;3.63;3.33;;;30.00;1.00;;;;;;5047151;28;20457;-75
2021/08/05 12:35:40;;;;;;;4.40;4.00;;;29.30;1.00;;;;;;5048494;28;20434;-75
2021/08/05 12:38:10;;;;;;;4.20;3.33;;;28.90;1.00;;;;;;5058916;28;20576;-81
2021/08/05 12:40:40;;;;;;;3.83;3.23;;;28.40;1.00;;;;;;5047079;28;20483;-75
2021/08/05 12:43:09;;;;;;;4.30;4.00;;;28.10;1.00;;;;;;5049927;28;20444;-73
2021/08/05 12:45:38;;;;;;;4.67;3.73;;;27.80;1.00;;;;;;5052237;28;20453;-75
2021/08/05 12:48:06;;;;;;;3.70;3.40;;;27.70;1.00;;;;;;5052874;28;20620;-76
2021/08/05 12:50:39;;;;;;;4.97;4.47;;;27.50;1.00;;;;;;5057698;28;20467;-76
2021/08/05 12:53:08;;;;;;;4.00;3.70;;;27.50;1.00;;;;;;5050927;28;20534;-75
2021/08/05 12:55:53;;;;;;;4.30;3.87;;;27.50;1.00;;;;;;5046277;28;20536;-73
2021/08/05 12:58:21;;;;;;;3.70;3.40;;;27.70;1.00;;;;;;5051701;28;21504;-75
2021/08/05 13:00:48;;;;;;;4.30;3.90;;;27.90;1.00;;;;;;5051067;28;20445;-72
2021/08/05 13:03:15;;;;;;;3.53;3.30;;;28.10;1.00;;;;;;5041388;28;20449;-73
2021/08/05 13:06:03;;;;;;;7.90;4.40;;;28.10;1.00;;;;;;5053271;28;20470;-76
2021/08/05 13:08:33;;;;;;;4.40;4.00;;;28.30;1.00;;;;;;5047620;28;20457;-75